Time;durP1;ratioP1;P1;durP2;ratioP2;P2;SDS_P1;SDS_P2;PMS_P1;PMS_P2;Temp;Humidity;BMP_temperature;BMP_pressure;BME280_temperature;BME280_humidity;BME280_pressure;Samples;Min_cycle;Max_cycle;Signal;HPM_P1;HPM_P2
2023/04/19 00:00:58;;;;;;;8.55;3.83;;;7.60;95.70;;;;;;5090674;28;20016;-39
2023/04/19 00:03:24;;;;;;;8.30;3.83;;;7.50;96.20;;;;;;5109743;28;20019;-39
2023/04/19 00:05:52;;;;;;;6.82;4.43;;;7.50;96.10;;;;;;5109669;28;20405;-39
2023/04/19 00:08:18;;;;;;;7.93;4.25;;;7.40;96.60;;;;;;5109763;28;20505;-39
2023/04/19 00:10:43;;;;;;;8.63;3.95;;;7.30;96.80;;;;;;5108625;28;20019;-39
2023/04/19 00:13:09;;;;;;;6.65;3.97;;;7.20;97.20;;;;;;5109018;28;20043;-39
2023/04/19 00:15:35;;;;;;;7.45;4.00;;;7.10;97.50;;;;;;5108644;28;20016;-39
2023/04/19 00:18:00;;;;;;;7.65;4.13;;;7.00;97.60;;;;;;5108808;28;20024;-39
2023/04/19 00:20:26;;;;;;;7.05;4.30;;;7.00;97.80;;;;;;5090379;28;20024;-39
2023/04/19 00:22:51;;;;;;;6.18;3.97;;;6.90;98.20;;;;;;5090307;28;20227;-39
2023/04/19 00:25:17;;;;;;;10.80;4.38;;;6.90;98.30;;;;;;5108604;28;20058;-39
2023/04/19 00:27:42;;;;;;;6.15;3.58;;;6.80;98.60;;;;;;5090335;28;20107;-39
2023/04/19 00:30:08;;;;;;;7.13;4.47;;;6.80;99.10;;;;;;5108282;28;20035;-39
2023/04/19 00:32:34;;;;;;;8.40;4.15;;;6.80;99.20;;;;;;5108484;28;20077;-39
2023/04/19 00:34:59;;;;;;;6.20;3.55;;;6.70;99.60;;;;;;5108671;28;20034;-40
2023/04/19 00:37:25;;;;;;;9.98;4.32;;;6.70;99.90;;;;;;5108322;28;20031;-40
2023/04/19 00:39:50;;;;;;;7.35;3.90;;;6.70;99.90;;;;;;5108451;28;20480;-40
2023/04/19 00:42:16;;;;;;;9.43;4.00;;;6.60;99.90;;;;;;5108812;28;20024;-40
2023/04/19 00:44:41;;;;;;;5.60;3.40;;;6.50;99.90;;;;;;5108714;28;20024;-40
2023/04/19 00:47:07;;;;;;;15.48;4.25;;;6.40;99.90;;;;;;5108692;28;20019;-40
2023/04/19 00:49:33;;;;;;;10.00;4.20;;;6.40;99.90;;;;;;5108104;28;20027;-40
2023/04/19 00:51:58;;;;;;;8.65;4.85;;;6.40;99.90;;;;;;5108526;28;20023;-39
2023/04/19 00:54:24;;;;;;;9.77;4.90;;;6.30;99.90;;;;;;5108327;28;20030;-39
2023/04/19 00:56:50;;;;;;;4.28;3.75;;;6.30;99.90;;;;;;5108235;28;20501;-39
2023/04/19 00:59:17;;;;;;;9.70;4.40;;;6.30;99.90;;;;;;5107649;27;20024;-39
2023/04/19 01:01:42;;;;;;;13.93;4.72;;;6.20;99.90;;;;;;5107387;28;20058;-40
2023/04/19 01:04:08;;;;;;;12.55;5.20;;;6.20;99.90;;;;;;5107814;28;20070;-40
2023/04/19 01:06:35;;;;;;;7.00;4.00;;;6.20;99.90;;;;;;5107637;28;20504;-39
2023/04/19 01:09:01;;;;;;;6.13;4.10;;;6.20;99.90;;;;;;5107590;28;20384;-39
2023/04/19 01:11:27;;;;;;;6.25;3.97;;;6.20;99.90;;;;;;5107421;28;20020;-40
2023/04/19 01:13:55;;;;;;;10.75;4.20;;;6.10;99.90;;;;;;5089303;28;20477;-39
2023/04/19 01:16:20;;;;;;;11.80;4.28;;;6.10;99.90;;;;;;5107398;28;20019;-40
2023/04/19 01:18:46;;;;;;;7.10;4.05;;;6.10;99.90;;;;;;5107392;28;20395;-39
2023/04/19 01:21:11;;;;;;;6.70;4.38;;;6.00;99.90;;;;;;5106825;28;20536;-39
2023/04/19 01:23:38;;;;;;;7.13;4.00;;;6.00;99.90;;;;;;5106964;28;20163;-39
2023/04/19 01:26:04;;;;;;;7.30;4.05;;;6.00;99.90;;;;;;5107209;28;20032;-39
2023/04/19 01:28:29;;;;;;;10.30;4.35;;;5.90;99.90;;;;;;5106408;28;20031;-39
2023/04/19 01:30:55;;;;;;;6.82;4.13;;;5.90;99.90;;;;;;5106853;28;20038;-39
2023/04/19 01:33:21;;;;;;;6.15;3.75;;;5.80;99.90;;;;;;5103590;28;20102;-39
2023/04/19 01:35:47;;;;;;;6.47;3.75;;;5.80;99.90;;;;;;5107247;28;20023;-39
2023/04/19 01:38:13;;;;;;;7.82;4.55;;;5.70;99.90;;;;;;5088184;28;20473;-39
2023/04/19 01:40:38;;;;;;;8.75;4.78;;;5.70;99.90;;;;;;5106554;28;20019;-39
2023/04/19 01:43:06;;;;;;;10.15;4.47;;;5.60;99.90;;;;;;5107069;28;20035;-39
2023/04/19 01:45:32;;;;;;;8.05;4.55;;;5.60;99.90;;;;;;5106517;28;20019;-43
2023/04/19 01:48:00;;;;;;;8.38;4.20;;;5.60;99.90;;;;;;5088730;28;20023;-39
2023/04/19 01:50:26;;;;;;;7.38;3.83;;;5.60;99.90;;;;;;5106772;28;20020;-39
2023/04/19 01:52:51;;;;;;;11.30;4.68;;;5.50;99.90;;;;;;5106908;28;20310;-39
2023/04/19 01:55:17;;;;;;;8.05;4.32;;;5.50;99.90;;;;;;5106850;28;20020;-39
2023/04/19 01:57:43;;;;;;;10.52;4.07;;;5.50;99.90;;;;;;5106155;28;20046;-39
2023/04/19 02:00:09;;;;;;;8.40;3.83;;;5.50;99.90;;;;;;5106325;28;20019;-39
2023/04/19 02:02:38;;;;;;;7.35;3.85;;;5.50;99.90;;;;;;5106399;28;21524;-39
2023/04/19 02:05:05;;;;;;;8.32;3.70;;;5.50;99.90;;;;;;5104402;28;20085;-39
2023/04/19 02:07:31;;;;;;;6.93;3.80;;;5.40;99.90;;;;;;5106313;28;20794;-39
2023/04/19 02:09:58;;;;;;;8.57;4.47;;;5.50;99.90;;;;;;5087442;28;20070;-39
2023/04/19 02:12:27;;;;;;;7.03;4.15;;;5.40;99.90;;;;;;5107691;28;20096;-39
2023/04/19 02:14:56;;;;;;;7.68;4.45;;;5.40;99.90;;;;;;5111588;28;20385;-39
2023/04/19 02:17:24;;;;;;;8.00;4.40;;;5.30;99.90;;;;;;5109740;28;20031;-39
2023/04/19 02:19:50;;;;;;;9.43;4.03;;;5.30;99.90;;;;;;5106525;27;20023;-39
2023/04/19 02:22:16;;;;;;;9.85;4.38;;;5.30;99.90;;;;;;5114353;27;20483;-40
2023/04/19 02:24:41;;;;;;;9.93;4.07;;;5.30;99.90;;;;;;5115123;27;20088;-40
2023/04/19 02:27:07;;;;;;;11.88;4.18;;;5.30;99.90;;;;;;5094950;27;20027;-40
2023/04/19 02:29:33;;;;;;;6.22;4.07;;;5.30;99.90;;;;;;5092080;28;20089;-40
2023/04/19 02:31:58;;;;;;;7.93;3.78;;;5.30;99.90;;;;;;5112931;27;20028;-39
2023/04/19 02:34:24;;;;;;;8.65;3.80;;;5.30;99.90;;;;;;5112880;27;20027;-40
2023/04/19 02:36:50;;;;;;;12.18;4.13;;;5.30;99.90;;;;;;5115386;27;20015;-39
2023/04/19 02:39:18;;;;;;;9.07;3.90;;;5.20;99.90;;;;;;5111207;27;20051;-39
2023/04/19 02:41:44;;;;;;;8.40;3.97;;;5.10;99.90;;;;;;5108607;27;20384;-39
2023/04/19 02:44:09;;;;;;;5.97;4.18;;;5.20;99.90;;;;;;5111582;27;20032;-39
2023/04/19 02:46:35;;;;;;;8.15;4.20;;;5.10;99.90;;;;;;5112009;27;20030;-39
2023/04/19 02:49:00;;;;;;;9.80;3.75;;;5.10;99.90;;;;;;5110189;27;20512;-39
2023/04/19 02:51:26;;;;;;;8.60;4.80;;;5.10;99.90;;;;;;5109612;28;20035;-39
2023/04/19 02:53:52;;;;;;;9.98;3.85;;;5.00;99.90;;;;;;5110416;28;20106;-39
2023/04/19 02:56:17;;;;;;;6.65;3.58;;;5.00;99.90;;;;;;5110552;28;20035;-39
2023/04/19 02:58:43;;;;;;;12.48;4.30;;;5.00;99.90;;;;;;5092087;27;20076;-39
2023/04/19 03:01:09;;;;;;;6.32;4.15;;;5.00;99.90;;;;;;5109773;28;20023;-39
2023/04/19 03:03:34;;;;;;;7.40;4.00;;;4.90;99.90;;;;;;5110759;28;20111;-39
2023/04/19 03:06:00;;;;;;;7.47;4.10;;;4.90;99.90;;;;;;5110380;28;20363;-39
2023/04/19 03:08:25;;;;;;;10.10;4.60;;;4.90;99.90;;;;;;5091660;28;20059;-39
2023/04/19 03:10:51;;;;;;;8.80;4.15;;;4.90;99.90;;;;;;5125447;27;20032;-39
2023/04/19 03:13:16;;;;;;;7.70;3.88;;;4.90;99.90;;;;;;5109891;28;20074;-39
2023/04/19 03:15:42;;;;;;;6.35;3.63;;;4.80;99.90;;;;;;5109746;28;20031;-39
2023/04/19 03:18:07;;;;;;;5.75;3.45;;;4.80;99.90;;;;;;5125243;27;20069;-39
2023/04/19 03:20:33;;;;;;;6.80;4.05;;;4.90;99.90;;;;;;5109617;28;20016;-40
2023/04/19 03:22:58;;;;;;;9.82;3.85;;;4.90;99.90;;;;;;5109446;28;20027;-39
2023/04/19 03:25:24;;;;;;;7.82;4.15;;;4.90;99.90;;;;;;5109361;28;20055;-39
2023/04/19 03:27:50;;;;;;;7.57;4.20;;;4.90;99.90;;;;;;5109410;28;20482;-39
2023/04/19 03:30:17;;;;;;;8.32;4.20;;;4.80;99.90;;;;;;5107467;27;20020;-39
2023/04/19 03:32:42;;;;;;;11.30;4.35;;;4.80;99.90;;;;;;5106023;28;20058;-39
2023/04/19 03:35:08;;;;;;;11.38;4.53;;;4.80;99.90;;;;;;5108975;28;20024;-39
2023/04/19 03:37:34;;;;;;;9.02;3.80;;;4.80;99.90;;;;;;5109059;28;20020;-39
2023/04/19 03:40:00;;;;;;;6.90;4.65;;;4.80;99.90;;;;;;5109208;28;20020;-39
2023/04/19 03:42:25;;;;;;;7.18;3.53;;;4.80;99.90;;;;;;5108917;28;20068;-39
2023/04/19 03:44:51;;;;;;;11.32;5.10;;;4.80;99.90;;;;;;5108760;28;20042;-39
2023/04/19 03:47:16;;;;;;;10.63;5.03;;;4.70;99.90;;;;;;5109410;28;20036;-40
2023/04/19 03:49:42;;;;;;;10.25;4.90;;;4.70;99.90;;;;;;5109065;28;20028;-39
2023/04/19 03:52:07;;;;;;;11.18;4.38;;;4.70;99.90;;;;;;5109227;28;20178;-40
2023/04/19 03:54:33;;;;;;;10.25;3.95;;;4.70;99.90;;;;;;5109082;28;20051;-39
2023/04/19 03:56:59;;;;;;;12.23;4.30;;;4.70;99.90;;;;;;5109392;28;20161;-39
2023/04/19 03:59:25;;;;;;;7.53;4.10;;;4.70;99.90;;;;;;5109590;27;20046;-40
2023/04/19 04:01:50;;;;;;;8.20;5.32;;;4.70;99.90;;;;;;5108807;28;20705;-40
2023/04/19 04:04:16;;;;;;;8.77;3.90;;;4.70;99.90;;;;;;5109493;28;20035;-40
2023/04/19 04:06:41;;;;;;;9.75;4.43;;;4.70;99.90;;;;;;5109616;28;20109;-40
2023/04/19 04:09:07;;;;;;;9.57;4.78;;;4.70;99.90;;;;;;5108828;28;20019;-40
2023/04/19 04:11:32;;;;;;;12.25;5.80;;;4.70;99.90;;;;;;5108846;28;20027;-40
2023/04/19 04:13:58;;;;;;;10.75;4.45;;;4.60;99.90;;;;;;5108359;28;20035;-40
2023/04/19 04:16:23;;;;;;;7.35;3.88;;;4.60;99.90;;;;;;5108361;28;20035;-40
2023/04/19 04:18:49;;;;;;;9.82;4.00;;;4.60;99.90;;;;;;5108798;28;20448;-40
2023/04/19 04:21:14;;;;;;;10.85;4.28;;;4.50;99.90;;;;;;5108582;28;20481;-39
2023/04/19 04:23:40;;;;;;;7.53;4.43;;;4.50;99.90;;;;;;5109329;28;20545;-40
2023/04/19 04:26:08;;;;;;;5.43;4.05;;;4.50;99.90;;;;;;5108968;28;20069;-39
2023/04/19 04:28:34;;;;;;;15.38;4.85;;;4.50;99.90;;;;;;5108997;27;20084;-40
2023/04/19 04:31:00;;;;;;;6.72;4.10;;;4.50;99.90;;;;;;5107722;28;20019;-39
2023/04/19 04:33:27;;;;;;;8.27;4.50;;;4.50;99.90;;;;;;5090262;28;20050;-39
2023/04/19 04:35:53;;;;;;;8.70;3.70;;;4.50;99.90;;;;;;5089642;28;20028;-39
2023/04/19 04:38:19;;;;;;;11.15;3.97;;;4.60;99.90;;;;;;5108018;28;20047;-39
2023/04/19 04:40:52;;;;;;;7.32;4.07;;;4.60;99.90;;;;;;5089533;28;20419;-39
2023/04/19 04:43:20;;;;;;;11.63;4.18;;;4.60;99.90;;;;;;5109150;28;20260;-39
2023/04/19 04:45:45;;;;;;;8.82;4.57;;;4.60;99.90;;;;;;5108297;28;20351;-39
2023/04/19 04:48:11;;;;;;;6.20;3.60;;;4.70;99.90;;;;;;5108489;28;20023;-39
2023/04/19 04:50:36;;;;;;;9.68;4.13;;;4.70;99.90;;;;;;5108325;28;20031;-40
2023/04/19 04:53:02;;;;;;;7.63;4.07;;;4.80;99.90;;;;;;5089628;28;20023;-39
2023/04/19 04:55:27;;;;;;;9.95;3.80;;;4.80;99.90;;;;;;5108132;28;20076;-40
2023/04/19 04:57:53;;;;;;;13.07;4.15;;;4.80;99.90;;;;;;5108395;28;20076;-41
2023/04/19 05:00:19;;;;;;;10.35;4.95;;;4.90;99.90;;;;;;5114156;27;20046;-40
2023/04/19 05:02:44;;;;;;;9.32;4.60;;;5.00;99.90;;;;;;5107734;28;20122;-40
2023/04/19 05:05:10;;;;;;;9.75;3.88;;;5.00;99.90;;;;;;5089854;28;20031;-40
2023/04/19 05:07:35;;;;;;;5.35;3.17;;;5.10;99.90;;;;;;5108039;28;20481;-40
2023/04/19 05:10:01;;;;;;;10.93;3.72;;;5.10;99.90;;;;;;5108113;28;20122;-40
2023/04/19 05:12:26;;;;;;;7.60;3.85;;;5.10;99.90;;;;;;5108190;28;20047;-40
2023/04/19 05:14:52;;;;;;;5.90;3.75;;;5.10;99.90;;;;;;5107915;28;20520;-40
2023/04/19 05:17:17;;;;;;;8.75;3.67;;;5.10;99.90;;;;;;5107982;28;20115;-40
2023/04/19 05:19:43;;;;;;;8.07;4.00;;;5.10;99.90;;;;;;5107960;28;20066;-40
2023/04/19 05:22:09;;;;;;;7.95;3.85;;;5.20;99.90;;;;;;5108018;28;20027;-39
2023/04/19 05:24:34;;;;;;;7.55;3.92;;;5.10;99.90;;;;;;5108030;28;20035;-40
2023/04/19 05:27:00;;;;;;;8.50;4.35;;;5.10;99.90;;;;;;5107547;28;20448;-40
2023/04/19 05:29:26;;;;;;;10.25;4.07;;;5.10;99.90;;;;;;5113228;27;20027;-40
2023/04/19 05:31:51;;;;;;;9.15;4.25;;;5.10;99.90;;;;;;5108022;27;20024;-39
2023/04/19 05:34:17;;;;;;;7.78;3.92;;;5.10;99.90;;;;;;5107728;28;20077;-39
2023/04/19 05:36:42;;;;;;;7.75;4.80;;;5.10;99.90;;;;;;5107801;28;20027;-39
2023/04/19 05:39:08;;;;;;;13.80;4.47;;;5.10;99.90;;;;;;5107898;28;20099;-39
2023/04/19 05:41:33;;;;;;;17.35;4.13;;;5.10;99.90;;;;;;5107516;28;20032;-39
2023/04/19 05:43:59;;;;;;;11.02;4.10;;;5.10;99.90;;;;;;5107845;28;20032;-39
2023/04/19 05:46:25;;;;;;;6.35;4.15;;;5.20;99.90;;;;;;5107467;28;20130;-39
2023/04/19 05:48:50;;;;;;;14.57;4.22;;;5.20;99.90;;;;;;5107970;28;20028;-39
2023/04/19 05:51:17;;;;;;;6.72;3.92;;;5.20;99.90;;;;;;5107215;28;20430;-40
2023/04/19 05:53:44;;;;;;;7.18;4.05;;;5.20;99.90;;;;;;5107396;28;20481;-40
2023/04/19 05:56:09;;;;;;;5.57;3.10;;;5.30;99.90;;;;;;5108236;28;20106;-40
2023/04/19 05:58:35;;;;;;;9.23;3.85;;;5.30;99.90;;;;;;5107296;28;20148;-39
2023/04/19 06:01:01;;;;;;;6.45;4.10;;;5.30;99.90;;;;;;5107951;28;20028;-40
2023/04/19 06:03:27;;;;;;;7.80;4.25;;;5.30;99.90;;;;;;5107610;28;20023;-40
2023/04/19 06:05:52;;;;;;;6.13;4.00;;;5.30;99.90;;;;;;5113724;28;20019;-40
2023/04/19 06:08:18;;;;;;;5.30;3.40;;;5.50;99.90;;;;;;5120489;27;20024;-40
2023/04/19 06:10:46;;;;;;;6.38;3.38;;;5.50;99.90;;;;;;5118046;28;20094;-40
2023/04/19 06:13:12;;;;;;;7.97;4.45;;;5.50;99.90;;;;;;5112667;28;20468;-40
2023/04/19 06:15:39;;;;;;;6.47;3.22;;;5.50;99.90;;;;;;5111106;28;20026;-40
2023/04/19 06:18:08;;;;;;;7.95;3.33;;;5.50;99.90;;;;;;5109000;28;20011;-40
2023/04/19 06:20:38;;;;;;;7.35;3.40;;;5.60;99.90;;;;;;5111367;28;20156;-40
2023/04/19 06:23:04;;;;;;;4.53;3.10;;;5.70;99.90;;;;;;5113303;28;20042;-40
2023/04/19 06:25:30;;;;;;;4.00;3.22;;;5.70;99.90;;;;;;5110816;28;20031;-40
2023/04/19 06:27:55;;;;;;;7.55;3.40;;;5.70;99.90;;;;;;5106471;28;20024;-40
2023/04/19 06:30:21;;;;;;;6.55;3.03;;;5.80;99.90;;;;;;5119175;28;20035;-40
2023/04/19 06:32:46;;;;;;;5.43;3.25;;;5.90;99.90;;;;;;5119427;28;20031;-40
2023/04/19 06:35:13;;;;;;;4.97;2.90;;;6.00;99.90;;;;;;5118018;28;20023;-40
2023/04/19 06:37:38;;;;;;;8.63;2.97;;;6.00;99.90;;;;;;5112005;28;20072;-40
2023/04/19 06:40:07;;;;;;;8.52;3.88;;;6.10;99.90;;;;;;5107994;28;20112;-40
2023/04/19 06:42:35;;;;;;;5.05;3.08;;;6.20;99.90;;;;;;5106615;28;20057;-40
2023/04/19 06:45:01;;;;;;;4.82;2.88;;;6.20;99.90;;;;;;5106228;28;20034;-40
2023/04/19 06:47:28;;;;;;;5.97;2.47;;;6.30;99.90;;;;;;5106408;28;20032;-38
2023/04/19 06:49:53;;;;;;;4.95;2.85;;;6.30;99.90;;;;;;5103485;28;20024;-39
2023/04/19 06:52:19;;;;;;;4.95;2.83;;;6.40;99.90;;;;;;5106435;28;20023;-39
2023/04/19 06:54:48;;;;;;;5.40;2.90;;;6.40;99.90;;;;;;5106931;28;20544;-39
2023/04/19 06:57:15;;;;;;;8.73;2.60;;;6.50;99.90;;;;;;5103643;28;20012;-39
2023/04/19 06:59:41;;;;;;;7.82;2.78;;;6.60;99.90;;;;;;5106124;28;20407;-39
2023/04/19 07:02:07;;;;;;;3.20;2.50;;;6.60;99.90;;;;;;5106360;28;20026;-39
2023/04/19 07:04:33;;;;;;;4.95;2.88;;;6.70;99.90;;;;;;5108858;28;20031;-39
2023/04/19 07:06:59;;;;;;;8.48;3.13;;;6.80;99.90;;;;;;5109738;28;20102;-40
2023/04/19 07:09:25;;;;;;;3.30;2.35;;;6.90;99.90;;;;;;5109894;28;20040;-40
2023/04/19 07:11:50;;;;;;;7.47;2.50;;;6.90;99.90;;;;;;5110062;28;20408;-40
2023/04/19 07:14:18;;;;;;;8.45;2.60;;;7.00;99.90;;;;;;5109842;28;20023;-39
2023/04/19 07:16:46;;;;;;;5.63;2.85;;;7.00;99.90;;;;;;5109575;28;20081;-39
2023/04/19 07:19:12;;;;;;;7.13;2.47;;;7.10;99.90;;;;;;5109722;28;20064;-40
2023/04/19 07:21:38;;;;;;;6.82;2.70;;;7.20;99.90;;;;;;5109350;28;20461;-40
2023/04/19 07:24:07;;;;;;;5.15;2.30;;;7.30;99.90;;;;;;5109499;28;20461;-40
2023/04/19 07:26:33;;;;;;;5.15;1.92;;;7.40;99.90;;;;;;5091119;28;20023;-40
2023/04/19 07:28:59;;;;;;;9.45;2.45;;;7.50;99.90;;;;;;5109985;27;20027;-40
2023/04/19 07:31:26;;;;;;;7.57;2.58;;;7.60;99.90;;;;;;5090331;28;20038;-40
2023/04/19 07:33:52;;;;;;;6.00;2.47;;;7.70;99.90;;;;;;5091074;28;20444;-40
2023/04/19 07:36:17;;;;;;;2.97;2.33;;;7.90;99.90;;;;;;5109557;28;20435;-40
2023/04/19 07:38:43;;;;;;;5.15;2.53;;;8.00;99.90;;;;;;5109715;28;20019;-40
2023/04/19 07:41:09;;;;;;;5.97;2.83;;;8.10;99.90;;;;;;5109591;28;20020;-40
2023/04/19 07:43:36;;;;;;;7.40;3.28;;;8.30;99.50;;;;;;5109957;28;20438;-40
2023/04/19 07:46:07;;;;;;;4.85;2.53;;;8.60;98.60;;;;;;5109919;28;20051;-40
2023/04/19 07:48:33;;;;;;;5.53;2.75;;;8.80;98.40;;;;;;5109540;28;20201;-40
2023/04/19 07:51:07;;;;;;;5.32;2.42;;;9.00;97.10;;;;;;5108882;28;20102;-40
2023/04/19 07:53:33;;;;;;;5.93;3.10;;;9.30;96.70;;;;;;5109479;28;20539;-41
2023/04/19 07:55:58;;;;;;;3.90;2.00;;;9.60;94.90;;;;;;5110053;28;20028;-40
2023/04/19 07:58:25;;;;;;;3.92;2.03;;;10.40;94.60;;;;;;5109705;28;20533;-41
2023/04/19 08:00:51;;;;;;;3.42;2.08;;;11.50;92.90;;;;;;5114676;27;20027;-41
2023/04/19 08:03:16;;;;;;;4.20;2.20;;;12.90;85.30;;;;;;5109247;28;20660;-41
2023/04/19 08:05:42;;;;;;;3.40;2.70;;;15.10;76.50;;;;;;5112330;27;20087;-43
2023/04/19 08:08:07;;;;;;;5.13;2.42;;;16.50;69.80;;;;;;5109295;28;20035;-42
2023/04/19 08:10:34;;;;;;;3.70;2.30;;;17.10;66.00;;;;;;5109278;28;20020;-42
2023/04/19 08:13:00;;;;;;;3.67;2.15;;;17.30;62.80;;;;;;5109256;28;20481;-39
2023/04/19 08:15:25;;;;;;;3.28;2.20;;;18.30;59.80;;;;;;5108013;28;20031;-39
2023/04/19 08:17:51;;;;;;;4.65;2.42;;;18.30;58.00;;;;;;5108542;28;20023;-39
2023/04/19 08:20:16;;;;;;;3.40;1.95;;;19.80;56.20;;;;;;5108464;28;20035;-40
2023/04/19 08:22:42;;;;;;;4.63;2.10;;;21.00;53.50;;;;;;5108510;28;20054;-40
2023/04/19 08:25:08;;;;;;;5.75;2.10;;;22.00;51.00;;;;;;5108871;28;20437;-41
2023/04/19 08:27:34;;;;;;;3.13;2.03;;;22.00;47.20;;;;;;5108355;28;20216;-38
2023/04/19 08:30:00;;;;;;;4.25;2.60;;;21.60;48.80;;;;;;5108505;28;20035;-38
2023/04/19 08:32:25;;;;;;;3.22;2.45;;;22.20;48.80;;;;;;5108771;28;20024;-38
2023/04/19 08:34:51;;;;;;;3.42;2.17;;;22.70;47.30;;;;;;5109187;28;20039;-38
2023/04/19 08:37:17;;;;;;;3.35;2.05;;;22.90;45.60;;;;;;5093632;28;20118;-39
2023/04/19 08:39:42;;;;;;;3.35;2.00;;;22.40;45.50;;;;;;5108414;28;20034;-39
2023/04/19 08:42:09;;;;;;;1.98;1.80;;;22.70;47.30;;;;;;5109099;28;20028;-38
2023/04/19 08:44:38;;;;;;;3.55;2.08;;;23.70;46.40;;;;;;5108646;28;20084;-39
2023/04/19 08:47:05;;;;;;;2.63;1.90;;;23.80;46.10;;;;;;5090023;28;20027;-39
2023/04/19 08:49:34;;;;;;;3.47;1.90;;;24.60;45.30;;;;;;5108361;28;20438;-39
2023/04/19 08:52:01;;;;;;;3.40;2.17;;;25.40;44.70;;;;;;5108267;28;20046;-39
2023/04/19 08:54:28;;;;;;;3.45;2.17;;;25.50;41.70;;;;;;5108199;28;20102;-40
2023/04/19 08:56:54;;;;;;;3.58;1.92;;;25.10;44.20;;;;;;5108249;28;20027;-39
2023/04/19 08:59:19;;;;;;;4.40;2.70;;;24.80;42.20;;;;;;5107946;28;20438;-39
2023/04/19 09:01:45;;;;;;;3.80;2.00;;;25.30;41.70;;;;;;5108152;28;20396;-39
2023/04/19 09:04:11;;;;;;;5.55;2.03;;;25.30;42.00;;;;;;5108722;28;20030;-39
2023/04/19 09:06:40;;;;;;;2.20;1.90;;;25.20;43.20;;;;;;5111990;27;20024;-39
2023/04/19 09:09:17;;;;;;;2.10;1.90;;;25.50;41.70;;;;;;5108500;28;20050;-40
2023/04/19 09:11:42;;;;;;;3.53;2.45;;;25.50;41.80;;;;;;5107600;28;20036;-40
2023/04/19 09:14:13;;;;;;;6.28;2.28;;;26.30;39.50;;;;;;5089195;28;20023;-40
2023/04/19 09:16:39;;;;;;;3.20;1.77;;;26.20;40.10;;;;;;5107890;28;20051;-39
2023/04/19 09:19:05;;;;;;;4.28;2.20;;;27.40;40.00;;;;;;5107893;28;20063;-39
2023/04/19 09:21:32;;;;;;;3.42;2.05;;;27.20;39.10;;;;;;5107529;28;20028;-40
2023/04/19 09:23:58;;;;;;;2.35;1.70;;;27.70;41.00;;;;;;5107509;28;20599;-39
2023/04/19 09:26:28;;;;;;;2.72;2.00;;;27.20;39.50;;;;;;5107501;28;20070;-39
2023/04/19 09:28:58;;;;;;;2.92;1.80;;;26.40;38.60;;;;;;5107364;28;20511;-40
2023/04/19 09:31:26;;;;;;;4.22;2.03;;;26.70;40.30;;;;;;5106962;28;20104;-39
2023/04/19 09:33:53;;;;;;;2.83;1.83;;;27.20;39.30;;;;;;5107430;28;20026;-39
2023/04/19 09:36:32;;;;;;;3.45;2.08;;;27.60;38.10;;;;;;5111394;27;20209;-39
2023/04/19 09:38:58;;;;;;;7.73;3.37;;;27.00;39.20;;;;;;5089544;28;20020;-39
2023/04/19 09:41:25;;;;;;;5.40;2.90;;;28.60;38.60;;;;;;5108219;28;20044;-41
2023/04/19 09:43:51;;;;;;;4.03;1.80;;;28.90;38.30;;;;;;5107772;28;20020;-41
2023/04/19 09:46:34;;;;;;;4.78;1.88;;;28.50;37.50;;;;;;5107181;28;20027;-40
2023/04/19 09:49:20;;;;;;;3.00;2.08;;;28.70;34.00;;;;;;5107151;28;20027;-39
2023/04/19 09:51:46;;;;;;;3.65;2.10;;;27.60;35.20;;;;;;5102678;28;20132;-39
2023/04/19 09:54:13;;;;;;;2.10;1.95;;;27.10;35.80;;;;;;5107592;28;20512;-41
2023/04/19 09:56:39;;;;;;;5.05;2.17;;;26.90;36.70;;;;;;5107809;28;20174;-39
2023/04/19 09:59:09;;;;;;;3.90;2.33;;;27.30;36.70;;;;;;5107139;28;20043;-39
2023/04/19 10:01:37;;;;;;;;;;;28.50;32.40;;;;;;5107513;28;20034;-38
2023/04/19 10:04:06;;;;;;;5.20;2.35;;;28.40;32.90;;;;;;5107706;28;19904;-38
2023/04/19 10:06:34;;;;;;;4.63;2.40;;;28.20;32.70;;;;;;5111006;28;20027;-38
2023/04/19 10:09:02;;;;;;;4.45;2.13;;;27.40;34.10;;;;;;5107521;28;20035;-39
2023/04/19 10:11:35;;;;;;;3.97;2.10;;;27.10;33.10;;;;;;5107176;28;20031;-40
2023/04/19 10:14:04;;;;;;;4.40;2.30;;;27.40;34.20;;;;;;5107907;28;20332;-39
2023/04/19 10:16:30;;;;;;;4.13;1.95;;;27.80;33.30;;;;;;5089756;28;20020;-40
2023/04/19 10:18:56;;;;;;;5.05;2.55;;;27.10;35.00;;;;;;5107099;28;20023;-40
2023/04/19 10:21:23;;;;;;;3.28;2.03;;;28.00;33.40;;;;;;5107236;28;20023;-40
2023/04/19 10:23:49;;;;;;;6.28;2.45;;;27.90;33.10;;;;;;5088208;28;20024;-40
2023/04/19 10:26:14;;;;;;;8.35;2.38;;;28.20;33.40;;;;;;5107242;28;20020;-40
2023/04/19 10:28:41;;;;;;;6.78;2.72;;;27.90;32.60;;;;;;5107337;28;20026;-40
2023/04/19 10:31:11;;;;;;;3.15;2.13;;;27.10;34.20;;;;;;5106641;28;20027;-40
2023/04/19 10:33:37;;;;;;;2.03;1.80;;;26.50;35.20;;;;;;5107293;28;20031;-40
2023/04/19 10:36:07;;;;;;;3.33;1.92;;;27.20;34.50;;;;;;5110773;28;20020;-41
2023/04/19 10:38:42;;;;;;;3.60;2.38;;;28.20;33.30;;;;;;5108665;28;20027;-42
2023/04/19 10:41:11;;;;;;;3.33;2.35;;;27.80;34.10;;;;;;5111322;28;20031;-40
2023/04/19 10:43:45;;;;;;;5.65;2.03;;;28.40;32.80;;;;;;5111323;28;20145;-41
2023/04/19 10:46:16;;;;;;;3.03;1.88;;;27.70;32.70;;;;;;5110919;28;20485;-40
2023/04/19 10:48:57;;;;;;;2.35;1.98;;;28.10;34.50;;;;;;5111040;28;20035;-40
2023/04/19 10:51:27;;;;;;;7.43;2.20;;;28.50;35.20;;;;;;5110959;28;20034;-39
2023/04/19 10:53:54;;;;;;;3.83;2.10;;;29.20;35.20;;;;;;5111206;28;20035;-39
2023/04/19 10:56:41;;;;;;;5.32;2.53;;;28.30;33.30;;;;;;5092919;28;20035;-39
2023/04/19 10:59:07;;;;;;;3.58;2.10;;;28.40;34.10;;;;;;5099410;27;20403;-38
2023/04/19 11:01:43;;;;;;;3.90;2.20;;;28.20;33.80;;;;;;5114017;27;20027;-39
2023/04/19 11:04:14;;;;;;;2.35;2.05;;;29.00;32.70;;;;;;5111183;28;20084;-38
2023/04/19 11:06:51;;;;;;;3.95;2.40;;;27.80;34.40;;;;;;5110980;28;20028;-38
2023/04/19 11:09:33;;;;;;;6.40;1.90;;;27.50;34.60;;;;;;5091816;28;20036;-38
2023/04/19 11:12:16;;;;;;;5.55;2.20;;;26.40;34.90;;;;;;5110416;28;20384;-39
2023/04/19 11:14:45;;;;;;;5.18;2.45;;;26.90;34.70;;;;;;5110730;28;20072;-39
2023/04/19 11:17:26;;;;;;;2.60;2.35;;;27.50;34.70;;;;;;5110960;28;20028;-38
2023/04/19 11:19:58;;;;;;;3.28;2.17;;;27.10;34.30;;;;;;5092217;28;20114;-38
2023/04/19 11:22:25;;;;;;;3.63;2.53;;;26.70;35.50;;;;;;5110582;28;20224;-38
2023/04/19 11:24:51;;;;;;;5.32;2.72;;;25.60;37.10;;;;;;5092252;28;20031;-38
2023/04/19 11:27:16;;;;;;;6.05;2.28;;;25.90;35.90;;;;;;5092277;28;20032;-38
2023/04/19 11:29:42;;;;;;;3.30;2.35;;;25.70;35.10;;;;;;5114306;27;20027;-38
2023/04/19 11:32:08;;;;;;;3.10;2.28;;;26.20;34.50;;;;;;5106296;27;20028;-38
2023/04/19 11:34:40;;;;;;;4.47;2.60;;;26.20;35.10;;;;;;5112433;27;20015;-39
2023/04/19 11:37:06;;;;;;;2.70;2.33;;;25.90;36.30;;;;;;5126561;27;20111;-39
2023/04/19 11:39:31;;;;;;;2.70;2.10;;;26.60;35.80;;;;;;5109829;28;20094;-39
2023/04/19 11:41:58;;;;;;;7.07;3.05;;;27.20;34.60;;;;;;5110193;28;20036;-39
2023/04/19 11:44:24;;;;;;;7.30;2.67;;;27.00;35.40;;;;;;5110062;28;20047;-38
2023/04/19 11:47:00;;;;;;;3.63;2.17;;;25.70;35.30;;;;;;5109949;28;20055;-38
2023/04/19 11:49:30;;;;;;;3.95;2.55;;;24.80;36.80;;;;;;5109047;28;20448;-39
2023/04/19 11:51:58;;;;;;;5.85;3.15;;;25.70;35.90;;;;;;5116561;27;20429;-39
2023/04/19 11:54:24;;;;;;;6.15;3.08;;;26.00;36.90;;;;;;5130605;27;20352;-39
2023/04/19 11:57:02;;;;;;;4.10;2.55;;;26.60;37.40;;;;;;5125187;27;20016;-39
2023/04/19 11:59:28;;;;;;;3.80;2.42;;;26.30;36.20;;;;;;5113091;27;20023;-41
2023/04/19 12:01:54;;;;;;;4.70;2.22;;;26.00;37.10;;;;;;5109598;27;20063;-39
2023/04/19 12:04:21;;;;;;;5.05;2.38;;;25.10;37.10;;;;;;5109837;28;20493;-38
2023/04/19 12:06:57;;;;;;;4.30;2.40;;;25.00;36.10;;;;;;5110082;28;20020;-38
2023/04/19 12:09:23;;;;;;;3.80;2.47;;;23.30;36.70;;;;;;5091170;28;20039;-38
2023/04/19 12:11:51;;;;;;;7.60;3.25;;;22.20;39.70;;;;;;5109064;28;20034;-38
2023/04/19 12:14:20;;;;;;;5.03;2.38;;;21.30;39.90;;;;;;5109040;28;20026;-38
2023/04/19 12:17:01;;;;;;;5.65;3.10;;;21.10;43.60;;;;;;5108567;28;20027;-38
2023/04/19 12:19:33;;;;;;;4.55;2.88;;;21.50;44.20;;;;;;5107736;28;20460;-38
2023/04/19 12:22:07;;;;;;;9.15;2.70;;;21.60;42.80;;;;;;5106234;28;20374;-38
2023/04/19 12:24:33;;;;;;;6.80;2.80;;;21.00;42.40;;;;;;5108753;28;20066;-38
2023/04/19 12:26:59;;;;;;;6.55;2.75;;;20.30;40.70;;;;;;5109221;28;20461;-38
2023/04/19 12:29:25;;;;;;;6.43;2.67;;;19.00;42.60;;;;;;5086000;27;20030;-38
2023/04/19 12:31:50;;;;;;;3.85;2.90;;;18.80;43.80;;;;;;5109606;27;20043;-38
2023/04/19 12:34:16;;;;;;;5.57;3.33;;;19.30;45.60;;;;;;5109178;28;20019;-38
2023/04/19 12:36:41;;;;;;;7.03;3.13;;;19.60;43.00;;;;;;5125136;27;20471;-38
2023/04/19 12:39:08;;;;;;;3.95;2.92;;;18.80;45.20;;;;;;5129427;27;20129;-38
2023/04/19 12:41:33;;;;;;;5.20;2.90;;;18.40;45.20;;;;;;5110672;27;20357;-38
2023/04/19 12:43:59;;;;;;;6.75;3.25;;;18.00;45.70;;;;;;5118634;27;20042;-38
2023/04/19 12:46:24;;;;;;;4.97;3.20;;;17.60;45.30;;;;;;5108124;28;20485;-38
2023/04/19 12:48:50;;;;;;;5.65;3.15;;;17.50;46.70;;;;;;5107910;28;20027;-38
2023/04/19 12:51:15;;;;;;;9.13;3.58;;;17.30;47.70;;;;;;5107843;28;20047;-38